sensor_id;sensor_type;location;lat;lon;timestamp;temperature;humidity
54006;DHT22;39919;38.160;-122.260;2023-07-09T00:01:16;24.50;60.70
54006;DHT22;39919;38.160;-122.260;2023-07-09T00:03:50;24.30;61.80
54006;DHT22;39919;38.160;-122.260;2023-07-09T00:06:28;24.30;65.40
54006;DHT22;39919;38.160;-122.260;2023-07-09T00:08:57;24.30;56.40
54006;DHT22;39919;38.160;-122.260;2023-07-09T00:11:28;24.30;62.50
54006;DHT22;39919;38.160;-122.260;2023-07-09T00:13:57;24.20;55.10
54006;DHT22;39919;38.160;-122.260;2023-07-09T00:16:26;24.10;55.60
54006;DHT22;39919;38.160;-122.260;2023-07-09T00:18:57;24.10;55.00
54006;DHT22;39919;38.160;-122.260;2023-07-09T00:21:26;24.00;55.20
54006;DHT22;39919;38.160;-122.260;2023-07-09T00:24:03;24.00;55.20
54006;DHT22;39919;38.160;-122.260;2023-07-09T00:26:33;23.90;55.50
54006;DHT22;39919;38.160;-122.260;2023-07-09T00:29:07;23.80;55.60
54006;DHT22;39919;38.160;-122.260;2023-07-09T00:31:36;23.80;56.00
54006;DHT22;39919;38.160;-122.260;2023-07-09T00:34:09;23.80;55.90
54006;DHT22;39919;38.160;-122.260;2023-07-09T00:36:41;23.70;55.90
54006;DHT22;39919;38.160;-122.260;2023-07-09T00:39:15;23.70;55.70
54006;DHT22;39919;38.160;-122.260;2023-07-09T00:41:45;23.70;55.80
54006;DHT22;39919;38.160;-122.260;2023-07-09T00:44:26;23.60;55.70
54006;DHT22;39919;38.160;-122.260;2023-07-09T00:47:25;23.50;55.80
54006;DHT22;39919;38.160;-122.260;2023-07-09T00:50:13;23.60;59.10
54006;DHT22;39919;38.160;-122.260;2023-07-09T00:52:50;23.60;71.00
54006;DHT22;39919;38.160;-122.260;2023-07-09T00:55:24;23.40;71.50
54006;DHT22;39919;38.160;-122.260;2023-07-09T00:58:03;23.30;60.50
54006;DHT22;39919;38.160;-122.260;2023-07-09T01:00:37;23.30;56.30
54006;DHT22;39919;38.160;-122.260;2023-07-09T01:03:19;23.20;56.50
54006;DHT22;39919;38.160;-122.260;2023-07-09T01:05:52;23.10;56.60
54006;DHT22;39919;38.160;-122.260;2023-07-09T01:08:24;23.00;56.90
54006;DHT22;39919;38.160;-122.260;2023-07-09T01:11:02;22.90;57.10
54006;DHT22;39919;38.160;-122.260;2023-07-09T01:13:31;22.80;57.40
54006;DHT22;39919;38.160;-122.260;2023-07-09T01:16:02;22.70;57.60
54006;DHT22;39919;38.160;-122.260;2023-07-09T01:18:31;22.70;58.00
54006;DHT22;39919;38.160;-122.260;2023-07-09T01:21:09;22.50;57.90
54006;DHT22;39919;38.160;-122.260;2023-07-09T01:23:42;22.50;58.50
54006;DHT22;39919;38.160;-122.260;2023-07-09T01:26:16;22.50;86.90
54006;DHT22;39919;38.160;-122.260;2023-07-09T01:28:45;22.40;84.70
54006;DHT22;39919;38.160;-122.260;2023-07-09T01:31:16;22.20;58.60
54006;DHT22;39919;38.160;-122.260;2023-07-09T01:33:47;22.20;63.80
54006;DHT22;39919;38.160;-122.260;2023-07-09T01:36:20;22.10;59.00
54006;DHT22;39919;38.160;-122.260;2023-07-09T01:38:53;22.10;79.60
54006;DHT22;39919;38.160;-122.260;2023-07-09T01:41:28;22.00;79.40
54006;DHT22;39919;38.160;-122.260;2023-07-09T01:44:03;22.00;78.50
54006;DHT22;39919;38.160;-122.260;2023-07-09T01:46:37;21.90;76.60
54006;DHT22;39919;38.160;-122.260;2023-07-09T01:49:06;21.90;75.10
54006;DHT22;39919;38.160;-122.260;2023-07-09T01:51:42;21.80;74.40
54006;DHT22;39919;38.160;-122.260;2023-07-09T01:54:14;21.70;71.10
54006;DHT22;39919;38.160;-122.260;2023-07-09T01:56:43;21.60;71.80
54006;DHT22;39919;38.160;-122.260;2023-07-09T01:59:16;21.40;59.90
54006;DHT22;39919;38.160;-122.260;2023-07-09T02:01:51;21.40;63.50
54006;DHT22;39919;38.160;-122.260;2023-07-09T02:04:24;21.30;70.10
54006;DHT22;39919;38.160;-122.260;2023-07-09T02:06:56;21.20;70.90
54006;DHT22;39919;38.160;-122.260;2023-07-09T02:09:27;21.10;71.80
54006;DHT22;39919;38.160;-122.260;2023-07-09T02:11:56;21.00;70.60
54006;DHT22;39919;38.160;-122.260;2023-07-09T02:14:26;20.90;71.60
54006;DHT22;39919;38.160;-122.260;2023-07-09T02:16:55;20.80;71.60
54006;DHT22;39919;38.160;-122.260;2023-07-09T02:19:27;20.80;73.20
54006;DHT22;39919;38.160;-122.260;2023-07-09T02:21:58;20.60;73.30
54006;DHT22;39919;38.160;-122.260;2023-07-09T02:24:28;20.50;74.10
54006;DHT22;39919;38.160;-122.260;2023-07-09T02:26:57;20.40;75.10
54006;DHT22;39919;38.160;-122.260;2023-07-09T02:29:28;20.40;71.10
54006;DHT22;39919;38.160;-122.260;2023-07-09T02:32:00;20.30;73.30
54006;DHT22;39919;38.160;-122.260;2023-07-09T02:34:30;20.30;74.70
54006;DHT22;39919;38.160;-122.260;2023-07-09T02:37:01;20.10;87.40
54006;DHT22;39919;38.160;-122.260;2023-07-09T02:39:30;20.00;62.90
54006;DHT22;39919;38.160;-122.260;2023-07-09T02:41:59;19.90;63.10
54006;DHT22;39919;38.160;-122.260;2023-07-09T02:44:28;19.80;63.00
54006;DHT22;39919;38.160;-122.260;2023-07-09T02:46:58;19.80;63.10
54006;DHT22;39919;38.160;-122.260;2023-07-09T02:49:27;19.70;63.30
54006;DHT22;39919;38.160;-122.260;2023-07-09T02:51:57;19.70;63.40
54006;DHT22;39919;38.160;-122.260;2023-07-09T02:54:34;19.60;63.30
54006;DHT22;39919;38.160;-122.260;2023-07-09T02:57:03;19.50;63.30
54006;DHT22;39919;38.160;-122.260;2023-07-09T02:59:32;19.40;63.50
54006;DHT22;39919;38.160;-122.260;2023-07-09T03:02:02;19.40;63.70
54006;DHT22;39919;38.160;-122.260;2023-07-09T03:04:31;19.30;64.00
54006;DHT22;39919;38.160;-122.260;2023-07-09T03:07:01;19.30;64.00
54006;DHT22;39919;38.160;-122.260;2023-07-09T03:09:32;19.20;63.90
54006;DHT22;39919;38.160;-122.260;2023-07-09T03:12:01;19.20;77.30
54006;DHT22;39919;38.160;-122.260;2023-07-09T03:14:30;19.10;64.90
54006;DHT22;39919;38.160;-122.260;2023-07-09T03:16:59;19.10;70.00
54006;DHT22;39919;38.160;-122.260;2023-07-09T03:19:28;19.00;73.00
54006;DHT22;39919;38.160;-122.260;2023-07-09T03:21:57;18.90;70.30
54006;DHT22;39919;38.160;-122.260;2023-07-09T03:24:26;18.80;67.60
54006;DHT22;39919;38.160;-122.260;2023-07-09T03:26:58;18.70;76.40
54006;DHT22;39919;38.160;-122.260;2023-07-09T03:29:27;18.70;77.60
54006;DHT22;39919;38.160;-122.260;2023-07-09T03:31:56;18.60;80.30
54006;DHT22;39919;38.160;-122.260;2023-07-09T03:34:25;18.40;78.80
54006;DHT22;39919;38.160;-122.260;2023-07-09T03:36:54;18.30;66.00
54006;DHT22;39919;38.160;-122.260;2023-07-09T03:39:23;18.20;66.10
54006;DHT22;39919;38.160;-122.260;2023-07-09T03:41:52;18.20;66.30
54006;DHT22;39919;38.160;-122.260;2023-07-09T03:44:26;18.10;66.70
54006;DHT22;39919;38.160;-122.260;2023-07-09T03:46:55;18.00;66.90
54006;DHT22;39919;38.160;-122.260;2023-07-09T03:49:24;17.90;67.20
54006;DHT22;39919;38.160;-122.260;2023-07-09T03:51:56;17.90;67.50
54006;DHT22;39919;38.160;-122.260;2023-07-09T03:54:25;17.70;67.70
54006;DHT22;39919;38.160;-122.260;2023-07-09T03:56:54;17.70;68.10
54006;DHT22;39919;38.160;-122.260;2023-07-09T03:59:25;17.60;68.90
54006;DHT22;39919;38.160;-122.260;2023-07-09T04:01:56;17.60;88.00
54006;DHT22;39919;38.160;-122.260;2023-07-09T04:04:26;17.50;91.00
54006;DHT22;39919;38.160;-122.260;2023-07-09T04:06:55;17.40;92.60
54006;DHT22;39919;38.160;-122.260;2023-07-09T04:09:24;17.30;90.70
54006;DHT22;39919;38.160;-122.260;2023-07-09T04:11:53;17.20;90.60
54006;DHT22;39919;38.160;-122.260;2023-07-09T04:14:25;17.20;86.50
54006;DHT22;39919;38.160;-122.260;2023-07-09T04:16:54;17.10;78.30
54006;DHT22;39919;38.160;-122.260;2023-07-09T04:19:24;17.10;85.50
54006;DHT22;39919;38.160;-122.260;2023-07-09T04:21:53;16.90;86.00
54006;DHT22;39919;38.160;-122.260;2023-07-09T04:24:22;16.90;77.30
54006;DHT22;39919;38.160;-122.260;2023-07-09T04:26:56;16.60;98.00
54006;DHT22;39919;38.160;-122.260;2023-07-09T04:49:26;16.30;72.50
54006;DHT22;39919;38.160;-122.260;2023-07-09T04:51:55;16.20;73.80
54006;DHT22;39919;38.160;-122.260;2023-07-09T04:54:26;16.10;73.80
54006;DHT22;39919;38.160;-122.260;2023-07-09T04:56:55;16.10;75.50
54006;DHT22;39919;38.160;-122.260;2023-07-09T04:59:28;16.00;75.60
54006;DHT22;39919;38.160;-122.260;2023-07-09T05:01:59;16.00;75.50
54006;DHT22;39919;38.160;-122.260;2023-07-09T05:04:28;15.90;76.10
54006;DHT22;39919;38.160;-122.260;2023-07-09T05:06:58;15.90;76.30
54006;DHT22;39919;38.160;-122.260;2023-07-09T05:09:32;15.90;76.80
54006;DHT22;39919;38.160;-122.260;2023-07-09T05:12:01;15.90;76.80
54006;DHT22;39919;38.160;-122.260;2023-07-09T05:14:30;15.80;76.90
54006;DHT22;39919;38.160;-122.260;2023-07-09T05:17:04;15.80;76.50
54006;DHT22;39919;38.160;-122.260;2023-07-09T05:19:33;15.80;77.00
54006;DHT22;39919;38.160;-122.260;2023-07-09T05:22:15;15.70;76.20
54006;DHT22;39919;38.160;-122.260;2023-07-09T05:24:44;15.80;76.00
54006;DHT22;39919;38.160;-122.260;2023-07-09T05:27:13;15.70;76.30
54006;DHT22;39919;38.160;-122.260;2023-07-09T05:29:42;15.70;76.00
54006;DHT22;39919;38.160;-122.260;2023-07-09T05:32:13;15.60;76.30
54006;DHT22;39919;38.160;-122.260;2023-07-09T05:34:42;15.60;76.60
54006;DHT22;39919;38.160;-122.260;2023-07-09T05:37:11;15.60;76.80
54006;DHT22;39919;38.160;-122.260;2023-07-09T05:39:40;15.50;76.70
54006;DHT22;39919;38.160;-122.260;2023-07-09T05:42:09;15.50;76.70
54006;DHT22;39919;38.160;-122.260;2023-07-09T05:44:38;15.40;76.50
54006;DHT22;39919;38.160;-122.260;2023-07-09T05:47:08;15.40;76.90
54006;DHT22;39919;38.160;-122.260;2023-07-09T05:49:39;15.40;77.40
54006;DHT22;39919;38.160;-122.260;2023-07-09T05:52:08;15.40;78.10
54006;DHT22;39919;38.160;-122.260;2023-07-09T05:54:37;15.30;78.10
54006;DHT22;39919;38.160;-122.260;2023-07-09T05:57:07;15.30;77.70
54006;DHT22;39919;38.160;-122.260;2023-07-09T05:59:36;15.20;77.90
54006;DHT22;39919;38.160;-122.260;2023-07-09T06:02:11;15.20;78.00
54006;DHT22;39919;38.160;-122.260;2023-07-09T06:04:42;15.20;78.30
54006;DHT22;39919;38.160;-122.260;2023-07-09T06:07:15;15.20;78.50
54006;DHT22;39919;38.160;-122.260;2023-07-09T06:09:45;15.20;78.40
54006;DHT22;39919;38.160;-122.260;2023-07-09T06:12:14;15.10;78.10
54006;DHT22;39919;38.160;-122.260;2023-07-09T06:14:45;15.10;77.70
54006;DHT22;39919;38.160;-122.260;2023-07-09T06:17:14;15.10;78.30
54006;DHT22;39919;38.160;-122.260;2023-07-09T06:19:45;15.00;78.00
54006;DHT22;39919;38.160;-122.260;2023-07-09T06:22:15;15.00;78.30
54006;DHT22;39919;38.160;-122.260;2023-07-09T06:24:45;15.00;78.30
54006;DHT22;39919;38.160;-122.260;2023-07-09T06:27:14;15.00;78.80
54006;DHT22;39919;38.160;-122.260;2023-07-09T06:29:43;14.90;78.80
54006;DHT22;39919;38.160;-122.260;2023-07-09T06:32:12;14.90;79.20
54006;DHT22;39919;38.160;-122.260;2023-07-09T06:34:42;14.90;79.70
54006;DHT22;39919;38.160;-122.260;2023-07-09T06:37:12;14.80;79.50
54006;DHT22;39919;38.160;-122.260;2023-07-09T06:39:41;14.80;83.90
54006;DHT22;39919;38.160;-122.260;2023-07-09T06:42:10;14.80;87.80
54006;DHT22;39919;38.160;-122.260;2023-07-09T06:44:40;14.80;88.50
54006;DHT22;39919;38.160;-122.260;2023-07-09T06:47:09;14.80;89.10
54006;DHT22;39919;38.160;-122.260;2023-07-09T06:49:38;14.70;89.40
54006;DHT22;39919;38.160;-122.260;2023-07-09T06:52:07;14.70;89.30
54006;DHT22;39919;38.160;-122.260;2023-07-09T06:54:38;14.70;89.50
54006;DHT22;39919;38.160;-122.260;2023-07-09T06:57:07;14.70;89.70
54006;DHT22;39919;38.160;-122.260;2023-07-09T06:59:36;14.70;90.10
54006;DHT22;39919;38.160;-122.260;2023-07-09T07:02:07;14.60;90.10
54006;DHT22;39919;38.160;-122.260;2023-07-09T07:04:36;14.60;90.00
54006;DHT22;39919;38.160;-122.260;2023-07-09T07:07:05;14.60;90.00
54006;DHT22;39919;38.160;-122.260;2023-07-09T07:09:34;14.60;90.00
54006;DHT22;39919;38.160;-122.260;2023-07-09T07:12:06;14.60;90.10
54006;DHT22;39919;38.160;-122.260;2023-07-09T07:14:35;14.50;90.20
54006;DHT22;39919;38.160;-122.260;2023-07-09T07:17:04;14.50;90.50
54006;DHT22;39919;38.160;-122.260;2023-07-09T07:19:37;14.50;90.70
54006;DHT22;39919;38.160;-122.260;2023-07-09T07:22:06;14.40;90.80
54006;DHT22;39919;38.160;-122.260;2023-07-09T07:24:35;14.40;91.00
54006;DHT22;39919;38.160;-122.260;2023-07-09T07:27:06;14.40;90.80
54006;DHT22;39919;38.160;-122.260;2023-07-09T07:29:37;14.40;90.70
54006;DHT22;39919;38.160;-122.260;2023-07-09T07:32:07;14.40;90.50
54006;DHT22;39919;38.160;-122.260;2023-07-09T07:34:37;14.40;90.80
54006;DHT22;39919;38.160;-122.260;2023-07-09T07:37:06;14.40;90.80
54006;DHT22;39919;38.160;-122.260;2023-07-09T07:39:35;14.40;91.20
54006;DHT22;39919;38.160;-122.260;2023-07-09T07:42:07;14.40;90.90
54006;DHT22;39919;38.160;-122.260;2023-07-09T07:44:36;14.30;90.80
54006;DHT22;39919;38.160;-122.260;2023-07-09T07:47:06;14.30;90.80
54006;DHT22;39919;38.160;-122.260;2023-07-09T07:49:35;14.30;90.90
54006;DHT22;39919;38.160;-122.260;2023-07-09T07:52:05;14.30;90.90
54006;DHT22;39919;38.160;-122.260;2023-07-09T07:54:35;14.30;90.90
54006;DHT22;39919;38.160;-122.260;2023-07-09T07:57:06;14.20;91.00
54006;DHT22;39919;38.160;-122.260;2023-07-09T07:59:35;14.20;91.00
54006;DHT22;39919;38.160;-122.260;2023-07-09T08:02:06;14.20;91.00
54006;DHT22;39919;38.160;-122.260;2023-07-09T08:04:35;14.20;91.10
54006;DHT22;39919;38.160;-122.260;2023-07-09T08:07:04;14.10;91.10
54006;DHT22;39919;38.160;-122.260;2023-07-09T08:09:34;14.10;91.40
54006;DHT22;39919;38.160;-122.260;2023-07-09T08:12:07;14.10;92.90
54006;DHT22;39919;38.160;-122.260;2023-07-09T08:14:40;14.10;83.80
54006;DHT22;39919;38.160;-122.260;2023-07-09T08:17:09;14.00;81.60
54006;DHT22;39919;38.160;-122.260;2023-07-09T08:19:45;14.00;82.10
54006;DHT22;39919;38.160;-122.260;2023-07-09T08:22:14;14.00;83.00
54006;DHT22;39919;38.160;-122.260;2023-07-09T08:24:44;14.00;82.10
54006;DHT22;39919;38.160;-122.260;2023-07-09T08:27:14;14.00;82.10
54006;DHT22;39919;38.160;-122.260;2023-07-09T08:29:44;13.90;82.50
54006;DHT22;39919;38.160;-122.260;2023-07-09T08:32:13;13.90;82.50
54006;DHT22;39919;38.160;-122.260;2023-07-09T08:34:42;13.90;82.30
54006;DHT22;39919;38.160;-122.260;2023-07-09T08:37:11;13.90;82.40
54006;DHT22;39919;38.160;-122.260;2023-07-09T08:39:41;13.90;82.20
54006;DHT22;39919;38.160;-122.260;2023-07-09T08:42:11;13.90;82.00
54006;DHT22;39919;38.160;-122.260;2023-07-09T08:45:04;13.90;82.00
54006;DHT22;39919;38.160;-122.260;2023-07-09T08:47:45;13.90;82.10
54006;DHT22;39919;38.160;-122.260;2023-07-09T08:50:17;13.80;81.60
54006;DHT22;39919;38.160;-122.260;2023-07-09T08:52:49;13.80;81.90
54006;DHT22;39919;38.160;-122.260;2023-07-09T08:55:24;13.80;81.50
54006;DHT22;39919;38.160;-122.260;2023-07-09T08:57:57;13.80;81.40
54006;DHT22;39919;38.160;-122.260;2023-07-09T09:00:31;13.80;81.20
54006;DHT22;39919;38.160;-122.260;2023-07-09T09:03:05;13.70;81.80
54006;DHT22;39919;38.160;-122.260;2023-07-09T09:05:43;13.70;81.10
54006;DHT22;39919;38.160;-122.260;2023-07-09T09:08:21;13.60;81.10
54006;DHT22;39919;38.160;-122.260;2023-07-09T09:10:59;13.60;81.10
54006;DHT22;39919;38.160;-122.260;2023-07-09T09:13:33;13.60;81.10
54006;DHT22;39919;38.160;-122.260;2023-07-09T09:16:11;13.60;96.90
54006;DHT22;39919;38.160;-122.260;2023-07-09T09:18:42;13.50;96.90
54006;DHT22;39919;38.160;-122.260;2023-07-09T09:21:16;13.50;96.80
54006;DHT22;39919;38.160;-122.260;2023-07-09T09:23:49;13.40;94.80
54006;DHT22;39919;38.160;-122.260;2023-07-09T09:26:24;13.50;93.00
54006;DHT22;39919;38.160;-122.260;2023-07-09T09:28:53;13.40;91.50
54006;DHT22;39919;38.160;-122.260;2023-07-09T09:31:25;13.30;90.60
54006;DHT22;39919;38.160;-122.260;2023-07-09T09:33:55;13.40;90.50
54006;DHT22;39919;38.160;-122.260;2023-07-09T09:36:26;13.20;90.20
54006;DHT22;39919;38.160;-122.260;2023-07-09T09:38:56;13.20;90.10
54006;DHT22;39919;38.160;-122.260;2023-07-09T09:41:31;13.30;90.00
54006;DHT22;39919;38.160;-122.260;2023-07-09T09:44:02;13.20;90.10
54006;DHT22;39919;38.160;-122.260;2023-07-09T09:46:34;13.20;90.20
54006;DHT22;39919;38.160;-122.260;2023-07-09T09:49:10;13.10;89.70
54006;DHT22;39919;38.160;-122.260;2023-07-09T09:51:43;13.10;90.30
54006;DHT22;39919;38.160;-122.260;2023-07-09T09:54:18;13.10;90.60
54006;DHT22;39919;38.160;-122.260;2023-07-09T09:56:49;13.10;90.70
54006;DHT22;39919;38.160;-122.260;2023-07-09T09:59:19;13.10;90.20
54006;DHT22;39919;38.160;-122.260;2023-07-09T10:01:57;13.00;90.20
54006;DHT22;39919;38.160;-122.260;2023-07-09T10:04:27;13.00;90.30
54006;DHT22;39919;38.160;-122.260;2023-07-09T10:06:59;13.00;90.60
54006;DHT22;39919;38.160;-122.260;2023-07-09T10:09:39;12.90;90.40
54006;DHT22;39919;38.160;-122.260;2023-07-09T10:12:30;13.00;90.40
54006;DHT22;39919;38.160;-122.260;2023-07-09T10:15:08;12.90;90.50
54006;DHT22;39919;38.160;-122.260;2023-07-09T10:17:49;12.90;90.50
54006;DHT22;39919;38.160;-122.260;2023-07-09T10:20:27;12.90;90.50
54006;DHT22;39919;38.160;-122.260;2023-07-09T10:23:16;12.80;90.70
54006;DHT22;39919;38.160;-122.260;2023-07-09T10:25:54;12.80;90.50
54006;DHT22;39919;38.160;-122.260;2023-07-09T10:28:49;12.80;90.50
54006;DHT22;39919;38.160;-122.260;2023-07-09T10:31:27;12.80;90.60
54006;DHT22;39919;38.160;-122.260;2023-07-09T10:34:09;12.80;90.40
54006;DHT22;39919;38.160;-122.260;2023-07-09T10:37:06;12.80;90.10
54006;DHT22;39919;38.160;-122.260;2023-07-09T10:39:38;12.70;90.00
54006;DHT22;39919;38.160;-122.260;2023-07-09T10:42:16;12.60;90.10
54006;DHT22;39919;38.160;-122.260;2023-07-09T10:44:51;12.70;90.30
54006;DHT22;39919;38.160;-122.260;2023-07-09T10:47:27;12.60;90.50
54006;DHT22;39919;38.160;-122.260;2023-07-09T10:50:00;12.70;89.70
54006;DHT22;39919;38.160;-122.260;2023-07-09T10:52:32;12.60;90.60
54006;DHT22;39919;38.160;-122.260;2023-07-09T10:55:05;12.60;90.70
54006;DHT22;39919;38.160;-122.260;2023-07-09T10:57:44;12.60;90.90
54006;DHT22;39919;38.160;-122.260;2023-07-09T11:00:17;12.60;91.10
54006;DHT22;39919;38.160;-122.260;2023-07-09T11:02:50;12.50;90.70
54006;DHT22;39919;38.160;-122.260;2023-07-09T11:05:24;12.60;90.70
54006;DHT22;39919;38.160;-122.260;2023-07-09T11:08:00;12.50;92.00
54006;DHT22;39919;38.160;-122.260;2023-07-09T11:10:34;12.50;92.40
54006;DHT22;39919;38.160;-122.260;2023-07-09T11:13:10;12.50;92.60
54006;DHT22;39919;38.160;-122.260;2023-07-09T11:15:42;12.50;92.60
54006;DHT22;39919;38.160;-122.260;2023-07-09T11:18:21;12.50;92.70
54006;DHT22;39919;38.160;-122.260;2023-07-09T11:21:00;12.40;92.60
54006;DHT22;39919;38.160;-122.260;2023-07-09T11:23:42;12.50;93.10
54006;DHT22;39919;38.160;-122.260;2023-07-09T11:26:13;12.50;93.10
54006;DHT22;39919;38.160;-122.260;2023-07-09T11:28:50;12.40;93.10
54006;DHT22;39919;38.160;-122.260;2023-07-09T11:31:23;12.40;93.10
54006;DHT22;39919;38.160;-122.260;2023-07-09T11:34:07;12.40;93.30
54006;DHT22;39919;38.160;-122.260;2023-07-09T11:36:50;12.40;93.50
54006;DHT22;39919;38.160;-122.260;2023-07-09T11:39:22;12.40;93.60
54006;DHT22;39919;38.160;-122.260;2023-07-09T11:41:59;12.40;93.80
54006;DHT22;39919;38.160;-122.260;2023-07-09T11:44:30;12.40;93.80
54006;DHT22;39919;38.160;-122.260;2023-07-09T11:47:21;12.40;93.80
54006;DHT22;39919;38.160;-122.260;2023-07-09T11:49:59;12.30;93.90
54006;DHT22;39919;38.160;-122.260;2023-07-09T11:52:33;12.40;94.00
54006;DHT22;39919;38.160;-122.260;2023-07-09T11:55:18;12.40;94.10
54006;DHT22;39919;38.160;-122.260;2023-07-09T11:57:49;12.40;94.20
54006;DHT22;39919;38.160;-122.260;2023-07-09T12:00:21;12.30;94.30
54006;DHT22;39919;38.160;-122.260;2023-07-09T12:02:51;12.30;94.50
54006;DHT22;39919;38.160;-122.260;2023-07-09T12:05:22;12.30;94.50
54006;DHT22;39919;38.160;-122.260;2023-07-09T12:07:56;12.30;94.50
54006;DHT22;39919;38.160;-122.260;2023-07-09T12:10:31;12.30;94.70
54006;DHT22;39919;38.160;-122.260;2023-07-09T12:13:01;12.30;94.70
54006;DHT22;39919;38.160;-122.260;2023-07-09T12:15:31;12.40;94.80
54006;DHT22;39919;38.160;-122.260;2023-07-09T12:18:08;12.20;94.90
54006;DHT22;39919;38.160;-122.260;2023-07-09T12:20:38;12.20;95.00
54006;DHT22;39919;38.160;-122.260;2023-07-09T12:23:20;12.20;95.00
54006;DHT22;39919;38.160;-122.260;2023-07-09T12:25:52;12.30;95.10
54006;DHT22;39919;38.160;-122.260;2023-07-09T12:28:22;12.30;95.40
54006;DHT22;39919;38.160;-122.260;2023-07-09T12:30:52;12.20;95.00
54006;DHT22;39919;38.160;-122.260;2023-07-09T12:33:25;12.20;95.30
54006;DHT22;39919;38.160;-122.260;2023-07-09T12:35:57;12.20;95.50
54006;DHT22;39919;38.160;-122.260;2023-07-09T12:38:30;12.20;95.70
54006;DHT22;39919;38.160;-122.260;2023-07-09T12:41:01;12.20;95.80
54006;DHT22;39919;38.160;-122.260;2023-07-09T12:43:32;12.20;95.90
54006;DHT22;39919;38.160;-122.260;2023-07-09T12:46:04;12.20;96.00
54006;DHT22;39919;38.160;-122.260;2023-07-09T12:48:33;12.10;96.00
54006;DHT22;39919;38.160;-122.260;2023-07-09T12:51:07;12.20;96.20
54006;DHT22;39919;38.160;-122.260;2023-07-09T12:53:40;12.10;96.40
54006;DHT22;39919;38.160;-122.260;2023-07-09T12:56:13;12.20;96.60
54006;DHT22;39919;38.160;-122.260;2023-07-09T12:58:45;12.10;96.80
54006;DHT22;39919;38.160;-122.260;2023-07-09T13:01:16;12.20;97.00
54006;DHT22;39919;38.160;-122.260;2023-07-09T13:03:55;12.20;97.30
54006;DHT22;39919;38.160;-122.260;2023-07-09T13:06:30;12.10;97.50
54006;DHT22;39919;38.160;-122.260;2023-07-09T13:09:01;12.20;97.90
54006;DHT22;39919;38.160;-122.260;2023-07-09T13:11:35;12.10;98.10
54006;DHT22;39919;38.160;-122.260;2023-07-09T13:14:18;12.10;98.10
54006;DHT22;39919;38.160;-122.260;2023-07-09T13:16:48;12.10;98.20
54006;DHT22;39919;38.160;-122.260;2023-07-09T13:19:18;12.20;98.60
54006;DHT22;39919;38.160;-122.260;2023-07-09T13:21:47;12.20;98.60
54006;DHT22;39919;38.160;-122.260;2023-07-09T13:24:22;12.20;98.70
54006;DHT22;39919;38.160;-122.260;2023-07-09T13:26:52;12.20;98.80
54006;DHT22;39919;38.160;-122.260;2023-07-09T13:29:33;12.20;98.90
54006;DHT22;39919;38.160;-122.260;2023-07-09T13:32:02;12.10;99.10
54006;DHT22;39919;38.160;-122.260;2023-07-09T13:34:32;12.20;99.20
54006;DHT22;39919;38.160;-122.260;2023-07-09T13:37:02;12.30;99.50
54006;DHT22;39919;38.160;-122.260;2023-07-09T13:39:33;12.30;99.70
54006;DHT22;39919;38.160;-122.260;2023-07-09T13:42:02;12.30;99.90
54006;DHT22;39919;38.160;-122.260;2023-07-09T13:44:31;12.30;99.90
54006;DHT22;39919;38.160;-122.260;2023-07-09T13:47:02;12.30;99.90
54006;DHT22;39919;38.160;-122.260;2023-07-09T13:49:32;12.40;99.90
54006;DHT22;39919;38.160;-122.260;2023-07-09T13:52:01;12.40;99.90
54006;DHT22;39919;38.160;-122.260;2023-07-09T13:54:37;12.50;99.90
54006;DHT22;39919;38.160;-122.260;2023-07-09T13:57:09;12.60;99.90
54006;DHT22;39919;38.160;-122.260;2023-07-09T13:59:40;12.70;99.90
54006;DHT22;39919;38.160;-122.260;2023-07-09T14:02:21;12.70;99.90
54006;DHT22;39919;38.160;-122.260;2023-07-09T14:04:50;12.90;99.90
54006;DHT22;39919;38.160;-122.260;2023-07-09T14:07:26;13.00;99.90
54006;DHT22;39919;38.160;-122.260;2023-07-09T16:20:30;16.20;99.90
54006;DHT22;39919;38.160;-122.260;2023-07-09T16:22:59;16.30;99.90
54006;DHT22;39919;38.160;-122.260;2023-07-09T16:25:32;16.40;98.50
54006;DHT22;39919;38.160;-122.260;2023-07-09T16:28:02;16.30;95.60
54006;DHT22;39919;38.160;-122.260;2023-07-09T16:30:33;16.40;95.40
54006;DHT22;39919;38.160;-122.260;2023-07-09T16:33:03;16.40;95.30
54006;DHT22;39919;38.160;-122.260;2023-07-09T16:35:32;16.50;95.20
54006;DHT22;39919;38.160;-122.260;2023-07-09T16:38:01;16.50;95.00
54006;DHT22;39919;38.160;-122.260;2023-07-09T16:40:31;16.60;95.00
54006;DHT22;39919;38.160;-122.260;2023-07-09T16:43:01;16.60;94.70
54006;DHT22;39919;38.160;-122.260;2023-07-09T16:45:32;16.70;94.90
54006;DHT22;39919;38.160;-122.260;2023-07-09T16:48:01;16.80;95.30
54006;DHT22;39919;38.160;-122.260;2023-07-09T16:50:30;16.80;86.60
54006;DHT22;39919;38.160;-122.260;2023-07-09T16:52:59;16.80;76.60
54006;DHT22;39919;38.160;-122.260;2023-07-09T16:55:28;16.90;76.40
54006;DHT22;39919;38.160;-122.260;2023-07-09T16:57:58;16.90;76.40
54006;DHT22;39919;38.160;-122.260;2023-07-09T17:00:29;17.00;86.00
54006;DHT22;39919;38.160;-122.260;2023-07-09T17:03:04;17.10;86.30
54006;DHT22;39919;38.160;-122.260;2023-07-09T17:05:35;17.10;82.70
54006;DHT22;39919;38.160;-122.260;2023-07-09T17:08:04;17.20;94.50
54006;DHT22;39919;38.160;-122.260;2023-07-09T17:10:34;17.20;92.50
54006;DHT22;39919;38.160;-122.260;2023-07-09T17:13:03;17.40;86.30
54006;DHT22;39919;38.160;-122.260;2023-07-09T17:15:33;17.50;83.30
54006;DHT22;39919;38.160;-122.260;2023-07-09T17:18:17;17.60;81.50
54006;DHT22;39919;38.160;-122.260;2023-07-09T17:20:48;17.70;85.60
54006;DHT22;39919;38.160;-122.260;2023-07-09T17:23:18;17.80;90.80
54006;DHT22;39919;38.160;-122.260;2023-07-09T17:25:47;17.90;87.30
54006;DHT22;39919;38.160;-122.260;2023-07-09T17:28:18;18.10;87.30
54006;DHT22;39919;38.160;-122.260;2023-07-09T17:30:48;18.20;81.80
54006;DHT22;39919;38.160;-122.260;2023-07-09T17:33:19;18.20;73.70
54006;DHT22;39919;38.160;-122.260;2023-07-09T17:35:50;18.30;73.10
54006;DHT22;39919;38.160;-122.260;2023-07-09T17:38:21;18.50;72.20
54006;DHT22;39919;38.160;-122.260;2023-07-09T17:40:53;18.60;71.80
54006;DHT22;39919;38.160;-122.260;2023-07-09T17:43:23;18.70;71.90
54006;DHT22;39919;38.160;-122.260;2023-07-09T17:45:53;18.90;71.80
54006;DHT22;39919;38.160;-122.260;2023-07-09T17:48:29;19.10;71.80